createdAt,value
2022-10-13T00:00:47.418Z,8.83
2022-10-13T00:03:14.597Z,8.74
2022-10-13T00:05:42.909Z,8.58
2022-10-13T00:08:10.577Z,8.60
2022-10-13T00:10:41.904Z,8.65
2022-10-13T00:13:12.195Z,8.70
2022-10-13T00:15:41.398Z,8.69
2022-10-13T00:18:08.068Z,8.79
2022-10-13T00:20:35.561Z,8.92
2022-10-13T00:23:02.172Z,8.86
2022-10-13T00:25:28.722Z,8.90
2022-10-13T00:27:55.303Z,8.92
2022-10-13T00:30:27.071Z,8.90
2022-10-13T00:32:53.602Z,8.80
2022-10-13T00:35:20.117Z,8.95
2022-10-13T00:37:46.686Z,9.00
2022-10-13T00:40:13.259Z,9.01
2022-10-13T00:42:41.598Z,8.92
2022-10-13T00:45:22.252Z,8.94
2022-10-13T00:47:55.266Z,8.85
2022-10-13T00:50:26.194Z,8.85
2022-10-13T00:52:57.037Z,8.84
2022-10-13T00:55:31.218Z,8.95
2022-10-13T00:58:05.213Z,8.89
2022-10-13T01:00:34.031Z,8.87
2022-10-13T01:03:02.936Z,8.94
2022-10-13T01:05:30.931Z,8.99
2022-10-13T01:07:59.404Z,9.05
2022-10-13T01:10:42.288Z,9.08
2022-10-13T01:13:18.233Z,9.07
2022-10-13T01:16:00.960Z,9.06
2022-10-13T01:18:46.357Z,9.09
2022-10-13T01:21:19.627Z,9.11
2022-10-13T01:24:20.904Z,9.12
2022-10-13T01:27:08.746Z,9.11
2022-10-13T01:30:06.549Z,9.11
2022-10-13T01:32:54.382Z,9.16
2022-10-13T01:35:33.447Z,9.10
2022-10-13T01:38:21.972Z,9.14
2022-10-13T01:41:19.698Z,9.18
2022-10-13T01:43:55.935Z,9.19
2022-10-13T01:46:27.733Z,9.19
2022-10-13T01:48:58.140Z,9.26
2022-10-13T01:51:27.985Z,9.24
2022-10-13T01:53:54.634Z,9.19
2022-10-13T01:56:21.161Z,9.21
2022-10-13T01:58:49.790Z,9.24
2022-10-13T02:01:35.264Z,9.22
2022-10-13T02:04:35.971Z,9.24
2022-10-13T02:07:11.200Z,9.19
2022-10-13T02:10:04.445Z,9.27
2022-10-13T02:12:38.334Z,9.21
2022-10-13T02:15:09.030Z,9.14
2022-10-13T02:17:35.809Z,9.14
2022-10-13T02:20:05.955Z,9.16
2022-10-13T02:22:42.238Z,9.24
2022-10-13T02:25:09.559Z,9.24
2022-10-13T02:27:36.119Z,9.31
2022-10-13T02:30:03.522Z,9.31
2022-10-13T02:32:30.643Z,9.37
2022-10-13T02:34:57.349Z,9.32
2022-10-13T02:37:25.698Z,9.44
2022-10-13T02:39:52.795Z,9.48
2022-10-13T02:42:19.824Z,9.42
2022-10-13T02:44:46.858Z,9.43
2022-10-13T02:47:13.400Z,9.40
2022-10-13T02:49:40.182Z,9.42
2022-10-13T02:52:06.844Z,9.49
2022-10-13T02:54:33.405Z,9.55
2022-10-13T02:57:00.011Z,9.55
2022-10-13T02:59:26.621Z,9.56
2022-10-13T03:01:53.179Z,9.59
2022-10-13T03:04:19.737Z,9.63
2022-10-13T03:06:46.301Z,9.64
2022-10-13T03:09:13.537Z,9.59
2022-10-13T03:11:43.414Z,9.57
2022-10-13T03:14:10.054Z,9.63
2022-10-13T03:16:36.675Z,9.62
2022-10-13T03:19:03.228Z,9.67
2022-10-13T03:21:29.804Z,9.81
2022-10-13T03:23:56.485Z,9.76
2022-10-13T03:26:24.184Z,9.79
2022-10-13T03:28:51.514Z,9.79
2022-10-13T03:31:18.808Z,9.79
2022-10-13T03:33:46.651Z,9.81
2022-10-13T03:36:13.577Z,9.80
2022-10-13T03:38:42.286Z,9.87
2022-10-13T03:41:11.875Z,9.91
2022-10-13T03:43:39.028Z,9.93
2022-10-13T03:46:07.165Z,9.88
2022-10-13T03:48:35.939Z,9.92
2022-10-13T03:51:08.091Z,10.08
2022-10-13T03:53:35.351Z,10.05
2022-10-13T03:56:02.272Z,10.12
2022-10-13T03:58:34.520Z,10.05
2022-10-13T04:01:05.356Z,10.09
2022-10-13T04:03:33.196Z,10.04
2022-10-13T04:06:01.931Z,10.16
2022-10-13T04:08:29.694Z,10.26
2022-10-13T04:11:07.855Z,10.21
2022-10-13T04:13:34.983Z,10.13
2022-10-13T04:16:06.923Z,10.17
2022-10-13T04:18:34.079Z,10.24
2022-10-13T04:21:01.176Z,10.27
2022-10-13T04:23:27.752Z,10.23
2022-10-13T04:25:54.385Z,10.28
2022-10-13T04:28:21.020Z,10.25
2022-10-13T04:30:49.512Z,10.29
2022-10-13T04:33:16.483Z,10.28
2022-10-13T04:35:43.115Z,10.28
2022-10-13T04:38:09.705Z,10.36
2022-10-13T04:40:36.310Z,10.32
2022-10-13T04:43:03.075Z,10.32
2022-10-13T04:45:29.797Z,10.35
2022-10-13T04:47:56.362Z,10.46
2022-10-13T04:50:23.031Z,10.45
2022-10-13T04:52:59.423Z,10.57
2022-10-13T04:55:26.300Z,10.70
2022-10-13T04:57:52.803Z,10.62
2022-10-13T05:00:19.468Z,10.64
2022-10-13T05:02:46.045Z,10.54
2022-10-13T05:05:12.613Z,10.63
2022-10-13T05:07:39.244Z,10.71
2022-10-13T05:10:06.128Z,10.70
2022-10-13T05:12:33.536Z,10.73
2022-10-13T05:15:00.732Z,10.66
2022-10-13T05:17:34.854Z,10.68
2022-10-13T05:20:06.028Z,10.67
2022-10-13T05:22:32.869Z,10.68
2022-10-13T05:24:59.366Z,10.74
2022-10-13T05:27:25.955Z,10.86
2022-10-13T05:29:52.491Z,10.73
2022-10-13T05:32:19.263Z,10.70
2022-10-13T05:34:48.579Z,10.65
2022-10-13T05:37:17.019Z,10.69
2022-10-13T05:39:48.457Z,10.71
2022-10-13T05:42:15.424Z,10.73
2022-10-13T05:44:42.745Z,10.68
2022-10-13T05:47:09.309Z,10.74
2022-10-13T05:49:39.835Z,10.85
2022-10-13T05:52:09.955Z,10.84
2022-10-13T05:54:44.209Z,10.82
2022-10-13T05:57:16.287Z,10.75
2022-10-13T05:59:58.184Z,10.70
2022-10-13T06:02:28.326Z,10.73
2022-10-13T06:04:57.473Z,10.75
2022-10-13T06:07:24.155Z,10.87
2022-10-13T06:09:50.824Z,10.83
2022-10-13T06:12:17.660Z,10.81
2022-10-13T06:14:44.390Z,10.90
2022-10-13T06:17:11.345Z,10.95
2022-10-13T06:19:42.726Z,10.85
2022-10-13T06:22:09.339Z,10.93
2022-10-13T06:24:35.839Z,10.85
2022-10-13T06:27:07.644Z,10.92
2022-10-13T06:29:36.262Z,10.88
2022-10-13T06:32:02.806Z,10.91
2022-10-13T06:34:29.358Z,10.85
2022-10-13T06:36:55.881Z,10.88
2022-10-13T06:39:22.560Z,10.87
2022-10-13T06:41:49.907Z,11.01
2022-10-13T06:44:16.462Z,11.07
2022-10-13T06:46:42.957Z,11.11
2022-10-13T06:49:10.341Z,11.12
2022-10-13T06:51:37.060Z,11.21
2022-10-13T06:54:03.700Z,11.22
2022-10-13T06:56:30.910Z,11.17
2022-10-13T06:58:58.766Z,11.28
2022-10-13T07:01:25.332Z,11.35
2022-10-13T07:03:52.382Z,11.46
2022-10-13T07:06:20.822Z,11.54
2022-10-13T07:08:49.415Z,11.57
2022-10-13T07:11:16.729Z,11.57
2022-10-13T07:13:48.594Z,11.54
2022-10-13T07:16:15.704Z,11.70
2022-10-13T07:18:42.426Z,11.73
2022-10-13T07:21:09.611Z,11.82
2022-10-13T07:23:36.236Z,11.76
2022-10-13T07:26:07.434Z,11.69
2022-10-13T07:28:34.063Z,11.84
2022-10-13T07:31:00.667Z,11.91
2022-10-13T07:33:27.268Z,11.98
2022-10-13T07:35:53.838Z,12.15
2022-10-13T07:38:20.331Z,12.18
2022-10-13T07:40:47.830Z,12.21
2022-10-13T07:43:14.411Z,12.17
2022-10-13T07:45:41.209Z,12.17
2022-10-13T07:48:07.853Z,12.27
2022-10-13T07:50:34.488Z,12.40
2022-10-13T07:53:01.195Z,12.43
2022-10-13T07:55:27.805Z,12.42
2022-10-13T07:57:54.365Z,12.38
2022-10-13T08:00:21.489Z,12.46
2022-10-13T08:02:51.660Z,12.53
2022-10-13T08:05:18.318Z,12.64
2022-10-13T08:07:45.508Z,12.74
2022-10-13T08:10:12.872Z,12.74
2022-10-13T08:12:39.450Z,12.78
2022-10-13T08:15:06.872Z,12.88
2022-10-13T08:17:33.570Z,13.03
2022-10-13T08:20:00.115Z,13.06
2022-10-13T08:22:28.521Z,13.19
2022-10-13T08:24:55.904Z,13.33
2022-10-13T08:27:37.048Z,13.59
2022-10-13T08:30:11.825Z,13.61
2022-10-13T08:32:38.466Z,13.73
2022-10-13T08:35:05.419Z,13.85
2022-10-13T08:37:31.960Z,13.93
2022-10-13T08:39:58.881Z,14.16
2022-10-13T08:42:25.509Z,14.37
2022-10-13T08:47:55.366Z,14.61
2022-10-13T08:50:26.961Z,14.56
2022-10-13T08:52:56.397Z,14.72
2022-10-13T08:55:39.630Z,14.91
2022-10-13T08:58:31.478Z,14.94
2022-10-13T09:01:00.605Z,14.93
2022-10-13T09:03:29.816Z,15.11
2022-10-13T09:06:14.844Z,15.10
2022-10-13T09:08:52.513Z,15.06
2022-10-13T09:11:19.662Z,15.11
2022-10-13T09:13:46.200Z,15.07
2022-10-13T09:16:12.850Z,15.28
2022-10-13T09:18:39.606Z,15.40
2022-10-13T09:21:24.872Z,15.47
2022-10-13T09:23:54.050Z,15.57
2022-10-13T09:26:24.503Z,15.62
2022-10-13T09:28:52.463Z,15.68
2022-10-13T09:31:28.145Z,15.77
2022-10-13T09:34:02.630Z,15.89
2022-10-13T09:36:29.364Z,15.88
2022-10-13T09:39:13.792Z,15.99
2022-10-13T09:41:42.493Z,16.07
2022-10-13T09:44:17.282Z,16.19
2022-10-13T09:46:54.856Z,16.28
2022-10-13T09:49:42.873Z,16.27
2022-10-13T09:52:12.486Z,16.31
2022-10-13T09:54:51.006Z,16.30
2022-10-13T09:57:41.222Z,16.42
2022-10-13T10:00:14.556Z,16.43
2022-10-13T10:02:51.307Z,16.58
2022-10-13T10:05:38.000Z,16.46
2022-10-13T10:08:14.447Z,16.54
2022-10-13T10:10:41.769Z,16.62
2022-10-13T10:13:13.097Z,16.69
2022-10-13T10:15:42.687Z,16.62
2022-10-13T10:18:14.541Z,16.65
2022-10-13T10:21:18.442Z,16.91
2022-10-13T10:24:08.159Z,16.87
2022-10-13T10:26:40.828Z,17.17
2022-10-13T10:29:43.723Z,17.34
2022-10-13T10:32:16.241Z,17.39
2022-10-13T10:34:48.698Z,17.19
2022-10-13T10:37:15.352Z,17.16
2022-10-13T10:40:08.293Z,17.36
2022-10-13T10:42:53.093Z,17.23
2022-10-13T10:45:33.817Z,17.31
2022-10-13T10:48:12.359Z,17.33
2022-10-13T10:50:39.671Z,17.22
2022-10-13T10:53:33.821Z,17.32
2022-10-13T10:56:33.097Z,17.43
2022-10-13T10:59:21.943Z,17.43
2022-10-13T11:02:35.111Z,17.65
2022-10-13T11:05:05.398Z,17.71
2022-10-13T11:07:33.193Z,17.57
2022-10-13T11:09:59.705Z,17.46
2022-10-13T11:12:47.079Z,17.49
2022-10-13T11:15:26.175Z,17.54
2022-10-13T11:17:53.277Z,17.69
2022-10-13T11:20:19.928Z,17.66
2022-10-13T11:22:58.770Z,17.64
2022-10-13T11:25:34.197Z,17.82
2022-10-13T11:28:00.917Z,17.64
2022-10-13T11:30:50.212Z,17.68
2022-10-13T11:33:51.450Z,17.94
2022-10-13T11:36:49.999Z,18.04
2022-10-13T11:42:31.373Z,18.26
2022-10-13T11:45:01.921Z,18.15
2022-10-13T11:47:39.235Z,18.23
2022-10-13T11:50:44.243Z,18.33
2022-10-13T11:53:26.167Z,18.26
2022-10-13T11:55:58.940Z,18.39
2022-10-13T11:58:34.246Z,18.44
2022-10-13T12:01:03.372Z,18.52
2022-10-13T12:03:38.514Z,18.64
2022-10-13T12:06:33.383Z,18.55
2022-10-13T12:09:15.241Z,18.63
2022-10-13T12:11:42.080Z,18.84
2022-10-13T12:14:20.976Z,18.72
2022-10-13T12:19:26.001Z,19.22
2022-10-13T12:21:55.573Z,19.49
2022-10-13T12:24:26.838Z,19.65
2022-10-13T12:26:54.205Z,19.95
2022-10-13T12:29:25.320Z,20.12
2022-10-13T12:31:52.065Z,20.24
2022-10-13T12:34:32.754Z,20.31
2022-10-13T12:37:03.086Z,20.09
2022-10-13T12:39:32.019Z,20.13
2022-10-13T12:42:00.801Z,20.15
2022-10-13T12:44:30.078Z,19.62
2022-10-13T12:46:59.144Z,19.38
2022-10-13T12:49:32.213Z,19.58
2022-10-13T12:52:11.252Z,19.54
2022-10-13T12:54:40.783Z,19.64
2022-10-13T12:57:17.087Z,19.78
2022-10-13T12:59:43.868Z,19.85
2022-10-13T13:02:29.284Z,19.66
2022-10-13T13:04:56.342Z,19.50
2022-10-13T13:07:36.929Z,19.63
2022-10-13T13:10:03.474Z,19.25
2022-10-13T13:12:31.208Z,19.24
2022-10-13T13:14:58.451Z,19.33
2022-10-13T13:17:52.881Z,19.18
2022-10-13T13:20:29.393Z,19.37
2022-10-13T13:22:57.526Z,19.42
2022-10-13T13:25:24.488Z,19.34
2022-10-13T13:27:52.182Z,19.24
2022-10-13T13:30:21.541Z,19.18
2022-10-13T13:32:48.362Z,18.94
2022-10-13T13:35:15.187Z,18.86
2022-10-13T13:37:51.409Z,18.99
2022-10-13T13:40:26.242Z,19.07
2022-10-13T13:42:53.417Z,19.00
2022-10-13T13:45:25.298Z,19.11
2022-10-13T13:47:55.824Z,19.00
2022-10-13T13:50:37.473Z,18.89
2022-10-13T13:53:04.734Z,18.63
2022-10-13T13:55:31.324Z,18.63
2022-10-13T13:57:58.415Z,18.78
2022-10-13T14:00:25.374Z,18.73
2022-10-13T14:02:55.105Z,18.78
2022-10-13T14:05:21.661Z,18.65
2022-10-13T14:07:48.315Z,18.65
2022-10-13T14:10:14.988Z,18.61
2022-10-13T14:12:41.594Z,18.59
2022-10-13T14:15:08.910Z,18.61
2022-10-13T14:17:35.586Z,18.42
2022-10-13T14:20:02.172Z,18.44
2022-10-13T14:22:28.821Z,18.23
2022-10-13T14:24:55.448Z,18.23
2022-10-13T14:27:22.792Z,18.27
2022-10-13T14:29:49.585Z,18.05
2022-10-13T14:32:20.462Z,18.21
2022-10-13T14:34:47.504Z,18.12
2022-10-13T14:37:14.082Z,18.12
2022-10-13T14:39:40.614Z,17.96
2022-10-13T14:42:07.251Z,17.98
2022-10-13T14:44:34.141Z,17.99
2022-10-13T14:47:02.315Z,17.96
2022-10-13T14:49:29.314Z,17.84
2022-10-13T14:51:55.848Z,17.69
2022-10-13T14:54:22.515Z,17.79
2022-10-13T14:56:49.128Z,17.93
2022-10-13T14:59:16.036Z,17.79
2022-10-13T15:01:43.413Z,17.82
2022-10-13T15:04:10.564Z,17.85
2022-10-13T15:06:40.464Z,17.77
2022-10-13T15:11:40.201Z,17.58
2022-10-13T15:14:07.518Z,17.49
2022-10-13T15:16:34.283Z,17.51
2022-10-13T15:19:01.090Z,17.42
2022-10-13T15:21:27.654Z,17.46
2022-10-13T15:23:54.246Z,17.47
2022-10-13T15:26:20.835Z,17.37
2022-10-13T15:28:50.570Z,17.22
2022-10-13T15:31:18.852Z,17.02
2022-10-13T15:33:47.078Z,16.91
2022-10-13T15:36:14.065Z,16.67
2022-10-13T15:38:40.818Z,16.75
2022-10-13T15:41:07.907Z,16.54
2022-10-13T15:43:34.706Z,16.71
2022-10-13T15:46:12.721Z,16.65
2022-10-13T15:48:39.889Z,16.53
2022-10-13T15:51:14.389Z,16.63
2022-10-13T15:53:40.940Z,16.57
2022-10-13T15:56:08.359Z,16.38
2022-10-13T15:58:35.944Z,16.47
2022-10-13T16:01:08.241Z,16.59
2022-10-13T16:03:35.324Z,16.51
2022-10-13T16:06:10.388Z,16.47
2022-10-13T16:08:43.614Z,16.49
2022-10-13T16:11:12.369Z,16.55
2022-10-13T16:13:39.879Z,16.58
2022-10-13T16:16:06.903Z,16.50
2022-10-13T16:18:35.896Z,16.47
2022-10-13T16:21:18.873Z,16.53
2022-10-13T16:23:46.760Z,16.53
2022-10-13T16:26:13.655Z,16.34
2022-10-13T16:28:40.537Z,16.42
2022-10-13T16:31:15.079Z,16.41
2022-10-13T16:33:43.354Z,16.31
2022-10-13T16:36:12.979Z,16.31
2022-10-13T16:38:40.247Z,16.25
2022-10-13T16:41:10.141Z,16.28
2022-10-13T16:43:36.854Z,16.23
2022-10-13T16:46:05.161Z,16.11
2022-10-13T16:48:33.251Z,16.21
2022-10-13T16:51:05.221Z,16.13
2022-10-13T16:53:31.898Z,16.10
2022-10-13T16:55:58.488Z,16.11
2022-10-13T16:58:25.125Z,16.08
2022-10-13T17:00:51.795Z,15.99
2022-10-13T17:03:18.432Z,15.92
2022-10-13T17:05:52.997Z,15.94
2022-10-13T17:08:19.510Z,16.01
2022-10-13T17:10:46.199Z,15.95
2022-10-13T17:13:12.785Z,15.95
2022-10-13T17:15:39.327Z,15.93
2022-10-13T17:18:06.057Z,15.99
2022-10-13T17:20:32.812Z,16.01
2022-10-13T17:22:59.379Z,15.90
2022-10-13T17:25:26.009Z,15.98
2022-10-13T17:27:52.526Z,15.84
2022-10-13T17:30:19.409Z,15.77
2022-10-13T17:32:45.920Z,15.77
2022-10-13T17:35:17.872Z,15.79
2022-10-13T17:37:44.754Z,15.79
2022-10-13T17:40:12.244Z,15.84
2022-10-13T17:42:38.977Z,15.86
2022-10-13T17:45:05.907Z,15.81
2022-10-13T17:47:32.502Z,15.62
2022-10-13T17:49:59.070Z,15.74
2022-10-13T17:52:26.707Z,15.72
2022-10-13T17:54:53.416Z,15.63
2022-10-13T17:57:21.630Z,15.64
2022-10-13T17:59:52.906Z,15.71
2022-10-13T18:02:19.495Z,15.66
2022-10-13T18:04:46.416Z,15.61
2022-10-13T18:07:13.133Z,15.61
2022-10-13T18:09:39.927Z,15.57
2022-10-13T18:12:06.721Z,15.51
2022-10-13T18:14:33.500Z,15.58
2022-10-13T18:17:00.296Z,15.55
2022-10-13T18:19:26.853Z,15.56
2022-10-13T18:21:53.678Z,15.55
2022-10-13T18:24:20.424Z,15.45
2022-10-13T18:26:47.689Z,15.37
2022-10-13T18:29:14.470Z,15.41
2022-10-13T18:31:42.198Z,15.51
2022-10-13T18:34:15.146Z,15.46
2022-10-13T18:36:44.915Z,15.56
2022-10-13T18:39:14.420Z,15.53
2022-10-13T18:41:43.906Z,15.55
2022-10-13T18:44:11.082Z,15.59
2022-10-13T18:46:39.040Z,15.48
2022-10-13T18:49:07.584Z,15.43
2022-10-13T18:51:36.627Z,15.48
2022-10-13T18:54:04.720Z,15.56
2022-10-13T18:56:33.198Z,15.56
2022-10-13T18:59:01.937Z,15.43
2022-10-13T19:01:31.140Z,15.45
2022-10-13T19:03:58.074Z,15.39
2022-10-13T19:06:27.123Z,15.40
2022-10-13T19:09:00.787Z,15.23
2022-10-13T19:11:28.769Z,15.21
2022-10-13T19:13:55.973Z,15.37
2022-10-13T19:16:24.526Z,15.21
2022-10-13T19:18:52.231Z,15.25
2022-10-13T19:21:20.395Z,15.29
2022-10-13T19:23:47.179Z,15.17
2022-10-13T19:26:21.428Z,15.35
2022-10-13T19:28:48.334Z,15.29
2022-10-13T19:31:21.271Z,15.35
2022-10-13T19:33:50.186Z,15.31
2022-10-13T19:36:30.480Z,15.25
2022-10-13T19:39:01.006Z,15.29
2022-10-13T19:41:29.840Z,15.25
2022-10-13T19:43:56.712Z,15.24
2022-10-13T19:46:24.387Z,15.27
2022-10-13T19:48:51.308Z,15.26
2022-10-13T19:51:18.094Z,15.20
2022-10-13T19:53:44.813Z,15.23
2022-10-13T19:56:38.186Z,15.26
2022-10-13T19:59:07.914Z,15.26
2022-10-13T20:01:40.064Z,15.29
2022-10-13T20:04:12.406Z,15.29
2022-10-13T20:06:39.923Z,15.29
2022-10-13T20:09:06.629Z,15.25
2022-10-13T20:11:33.605Z,15.20
2022-10-13T20:14:00.483Z,15.25
2022-10-13T20:16:27.623Z,15.21
2022-10-13T20:18:56.682Z,15.18
2022-10-13T20:21:24.766Z,15.15
2022-10-13T20:23:51.847Z,15.09
2022-10-13T20:26:19.342Z,15.21
2022-10-13T20:28:48.318Z,15.13
2022-10-13T20:31:18.214Z,15.00
2022-10-13T20:33:46.939Z,14.91
2022-10-13T20:36:16.631Z,15.04
2022-10-13T20:38:43.350Z,15.00
2022-10-13T20:41:22.467Z,15.09
2022-10-13T20:43:49.787Z,15.09
2022-10-13T20:46:18.052Z,15.19
2022-10-13T20:49:09.334Z,15.12
2022-10-13T20:51:31.587Z,15.14
2022-10-13T20:53:58.428Z,15.10
2022-10-13T20:56:26.860Z,15.16
2022-10-13T20:58:54.058Z,15.16
2022-10-13T21:01:22.288Z,15.22
2022-10-13T21:03:52.957Z,15.13
2022-10-13T21:06:20.140Z,15.13
2022-10-13T21:08:47.208Z,15.09
2022-10-13T21:11:15.689Z,15.12
2022-10-13T21:13:43.861Z,15.19
2022-10-13T21:16:16.219Z,15.20
2022-10-13T21:18:50.851Z,15.16
2022-10-13T21:21:22.588Z,15.21
2022-10-13T21:23:59.513Z,15.20
2022-10-13T21:26:27.814Z,15.27
2022-10-13T21:28:54.709Z,15.20
2022-10-13T21:31:23.239Z,15.22
2022-10-13T21:33:50.645Z,15.27
2022-10-13T21:36:20.140Z,15.06
2022-10-13T21:38:47.204Z,15.14
2022-10-13T21:41:14.670Z,15.09
2022-10-13T21:43:41.691Z,15.15
2022-10-13T21:46:16.073Z,15.10
2022-10-13T21:48:44.029Z,15.20
2022-10-13T21:51:21.178Z,15.17
2022-10-13T21:53:53.437Z,15.12
2022-10-13T21:56:20.930Z,15.16
2022-10-13T21:58:48.888Z,15.14
2022-10-13T22:01:19.634Z,15.23
2022-10-13T22:03:47.245Z,15.17
2022-10-13T22:06:19.283Z,15.20
2022-10-13T22:08:48.394Z,15.18
2022-10-13T22:11:21.696Z,15.11
2022-10-13T22:13:48.284Z,15.16
2022-10-13T22:16:34.202Z,15.13
2022-10-13T22:19:01.173Z,15.19
2022-10-13T22:21:31.318Z,15.08
2022-10-13T22:24:00.254Z,15.12
2022-10-13T22:26:29.089Z,15.07
2022-10-13T22:29:00.026Z,15.06
2022-10-13T22:31:27.907Z,15.16
2022-10-13T22:33:54.895Z,15.22
2022-10-13T22:36:24.161Z,15.13
2022-10-13T22:38:53.037Z,15.08
2022-10-13T22:41:20.753Z,15.14
2022-10-13T22:43:56.338Z,15.14
2022-10-13T22:46:35.821Z,15.00
2022-10-13T22:49:03.092Z,15.13
2022-10-13T22:51:32.024Z,15.13
2022-10-13T22:53:59.430Z,15.15
2022-10-13T22:56:31.802Z,15.10
2022-10-13T22:59:05.050Z,15.08
2022-10-13T23:01:31.909Z,14.95
2022-10-13T23:03:59.221Z,14.95
2022-10-13T23:06:28.692Z,14.94
2022-10-13T23:08:55.425Z,15.02
2022-10-13T23:11:22.160Z,14.95
2022-10-13T23:13:49.231Z,15.01
2022-10-13T23:16:19.268Z,15.11
2022-10-13T23:18:46.568Z,15.08
2022-10-13T23:21:24.408Z,15.15
2022-10-13T23:24:10.861Z,15.07
2022-10-13T23:26:37.624Z,15.16
2022-10-13T23:29:05.081Z,15.23
2022-10-13T23:31:31.966Z,15.14
2022-10-13T23:33:58.968Z,15.16
2022-10-13T23:36:27.664Z,15.12
2022-10-13T23:39:00.363Z,15.12
2022-10-13T23:41:27.761Z,14.99
2022-10-13T23:43:54.372Z,15.03
2022-10-13T23:46:21.269Z,15.09
2022-10-13T23:48:48.038Z,15.15
2022-10-13T23:51:17.423Z,15.01
2022-10-13T23:53:44.491Z,14.99
2022-10-13T23:56:12.946Z,15.08
2022-10-13T23:58:41.244Z,15.15
